Princeton, Minnesota
Current Conditions -  °F | °C
As of 6:14 AM on Thursday 29 Jan 2015 (Local Time) from KPNM Reporting Station
Overcast Overcast  
Wind Chill: 21°   Ceiling: 1200
Heat Index: 32°   Visibility: 10mi
Dew Point: 27°   Wind: 16mph
Humidity: 80%   Direction: 320°NW
Pressure: 30.06"   Gusts: 26mph
Location:  45.56°N, 93.6°W
Report Text: KPNM 291214Z AUTO 32014G23KT 10SM OVC012 00/M03 A3006 RMK AO2
Loading
Personal Weather Stations






























Interactive Weather Map New forecast layout! Learn more

10-Day Weather Forecast

Advertisements
Track Severe Weather on mobile